createdAt,value
2022-08-08T00:02:04.069Z,4.87
2022-08-08T00:04:49.382Z,4.90
2022-08-08T00:07:29.497Z,5.65
2022-08-08T00:10:14.975Z,4.85
2022-08-08T00:12:56.478Z,5.10
2022-08-08T00:15:55.941Z,4.83
2022-08-08T00:18:26.998Z,5.38
2022-08-08T00:21:02.154Z,5.05
2022-08-08T00:23:51.466Z,5.43
2022-08-08T00:26:30.418Z,5.40
2022-08-08T00:29:08.354Z,5.43
2022-08-08T00:32:21.475Z,5.70
2022-08-08T00:35:04.882Z,4.78
2022-08-08T00:38:01.932Z,4.88
2022-08-08T00:41:12.079Z,5.30
2022-08-08T00:43:22.030Z,5.60
2022-08-08T00:45:56.350Z,5.83
2022-08-08T00:48:59.306Z,5.73
2022-08-08T00:51:38.877Z,5.67
2022-08-08T00:54:34.282Z,6.33
2022-08-08T00:57:36.011Z,6.20
2022-08-08T01:00:12.011Z,6.00
2022-08-08T01:03:58.165Z,6.00
2022-08-08T01:07:10.700Z,6.38
2022-08-08T01:10:21.182Z,5.83
2022-08-08T01:12:59.542Z,6.37
2022-08-08T01:15:54.308Z,6.07
2022-08-08T01:18:52.627Z,5.83
2022-08-08T01:22:13.226Z,6.10
2022-08-08T01:24:58.043Z,5.87
2022-08-08T01:27:46.104Z,5.90
2022-08-08T01:30:27.250Z,5.90
2022-08-08T01:33:42.911Z,6.30
2022-08-08T01:36:28.594Z,6.37
2022-08-08T01:39:28.545Z,5.65
2022-08-08T01:42:36.231Z,6.27
2022-08-08T01:45:40.858Z,5.97
2022-08-08T01:48:31.035Z,5.63
2022-08-08T01:52:51.927Z,5.30
2022-08-08T01:55:46.271Z,5.90
2022-08-08T01:58:04.596Z,5.53
2022-08-08T02:00:34.781Z,5.10
2022-08-08T02:03:56.156Z,6.83
2022-08-08T02:06:43.268Z,5.70
2022-08-08T02:10:03.944Z,6.07
2022-08-08T02:12:57.951Z,5.70
2022-08-08T02:15:31.156Z,5.90
2022-08-08T02:18:32.814Z,5.80
2022-08-08T02:22:07.575Z,5.77
2022-08-08T02:24:51.616Z,5.43
2022-08-08T02:27:42.363Z,5.23
2022-08-08T02:30:49.876Z,5.80
2022-08-08T02:34:00.418Z,5.77
2022-08-08T02:36:32.152Z,5.67
2022-08-08T02:39:41.867Z,5.53
2022-08-08T02:42:36.278Z,4.90
2022-08-08T02:45:23.691Z,5.37
2022-08-08T02:48:10.632Z,5.17
2022-08-08T02:50:58.631Z,5.67
2022-08-08T02:53:57.934Z,4.97
2022-08-08T02:57:02.202Z,5.20
2022-08-08T02:59:57.485Z,5.03
2022-08-08T03:03:05.035Z,5.77
2022-08-08T03:05:46.548Z,5.43
2022-08-08T03:08:51.953Z,5.37
2022-08-08T03:12:03.034Z,5.10
2022-08-08T03:15:59.073Z,5.73
2022-08-08T03:18:04.614Z,4.93
2022-08-08T03:20:51.486Z,5.10
2022-08-08T03:23:40.109Z,5.37
2022-08-08T03:26:30.930Z,4.83
2022-08-08T03:29:17.089Z,5.03
2022-08-08T03:32:09.477Z,5.40
2022-08-08T03:34:40.336Z,5.10
2022-08-08T03:38:00.095Z,5.37
2022-08-08T03:40:02.318Z,4.47
2022-08-08T03:42:32.864Z,5.23
2022-08-08T03:45:02.223Z,5.13
2022-08-08T03:48:05.784Z,5.03
2022-08-08T03:50:42.610Z,5.40
2022-08-08T03:53:24.020Z,5.73
2022-08-08T03:56:09.500Z,5.33
2022-08-08T03:58:38.453Z,5.53
2022-08-08T04:01:23.708Z,5.57
2022-08-08T04:03:58.387Z,6.30
2022-08-08T04:06:30.343Z,5.60
2022-08-08T04:09:10.389Z,6.10
2022-08-08T04:11:57.810Z,5.67
2022-08-08T04:14:34.332Z,6.07
2022-08-08T04:17:15.634Z,5.97
2022-08-08T04:19:52.017Z,5.53
2022-08-08T04:22:27.491Z,5.87
2022-08-08T04:24:57.117Z,5.77
2022-08-08T04:28:02.936Z,6.13
2022-08-08T04:30:17.329Z,6.13
2022-08-08T04:32:49.814Z,5.97
2022-08-08T04:35:22.551Z,5.77
2022-08-08T04:37:53.758Z,5.97
2022-08-08T04:40:25.394Z,5.57
2022-08-08T04:43:00.774Z,5.40
2022-08-08T04:45:35.660Z,6.00
2022-08-08T04:48:05.501Z,5.57
2022-08-08T04:50:46.061Z,5.60
2022-08-08T04:54:37.404Z,5.63
2022-08-08T04:56:07.467Z,5.60
2022-08-08T04:58:35.758Z,6.00
2022-08-08T05:01:09.080Z,5.87
2022-08-08T05:04:09.598Z,5.73
2022-08-08T05:06:33.690Z,5.70
2022-08-08T05:09:06.197Z,5.60
2022-08-08T05:11:38.896Z,5.20
2022-08-08T05:14:12.238Z,5.63
2022-08-08T05:16:53.854Z,5.97
2022-08-08T05:20:12.279Z,5.90
2022-08-08T05:22:18.349Z,6.20
2022-08-08T05:24:49.496Z,5.68
2022-08-08T05:27:20.655Z,5.00
2022-08-08T05:29:51.782Z,4.63
2022-08-08T05:32:24.520Z,4.80
2022-08-08T05:35:04.549Z,4.57
2022-08-08T05:37:53.360Z,4.77
2022-08-08T05:40:33.880Z,5.10
2022-08-08T05:43:38.658Z,4.83
2022-08-08T05:46:07.628Z,4.60
2022-08-08T05:48:38.105Z,4.77
2022-08-08T05:51:13.394Z,4.90
2022-08-08T05:54:25.037Z,4.10
2022-08-08T05:56:47.582Z,4.78
2022-08-08T06:00:00.684Z,5.07
2022-08-08T06:02:43.465Z,4.63
2022-08-08T06:05:34.671Z,4.28
2022-08-08T06:08:10.412Z,4.68
2022-08-08T06:10:59.290Z,4.28
2022-08-08T06:13:35.599Z,4.03
2022-08-08T06:16:13.198Z,4.20
2022-08-08T06:19:15.892Z,4.35
2022-08-08T06:21:57.066Z,5.93
2022-08-08T06:24:36.237Z,5.18
2022-08-08T06:27:06.498Z,5.00
2022-08-08T06:29:59.940Z,5.03
2022-08-08T06:32:30.920Z,4.78
2022-08-08T06:36:00.667Z,4.72
2022-08-08T06:38:04.628Z,5.00
2022-08-08T06:40:37.218Z,5.00
2022-08-08T06:43:18.782Z,4.93
2022-08-08T06:45:53.653Z,4.63
2022-08-08T06:48:21.649Z,4.97
2022-08-08T06:50:55.705Z,4.88
2022-08-08T06:53:24.852Z,4.72
2022-08-08T06:56:09.196Z,4.75
2022-08-08T06:58:36.876Z,5.22
2022-08-08T07:01:52.194Z,4.25
2022-08-08T07:04:41.521Z,4.97
2022-08-08T07:06:57.323Z,5.35
2022-08-08T07:09:41.926Z,5.05
2022-08-08T07:12:20.400Z,5.63
2022-08-08T07:14:58.172Z,4.80
2022-08-08T07:17:56.584Z,4.95
2022-08-08T07:20:28.347Z,4.30
2022-08-08T07:23:04.540Z,4.93
2022-08-08T07:25:54.188Z,4.53
2022-08-08T07:28:24.140Z,4.00
2022-08-08T07:31:01.957Z,4.75
2022-08-08T07:33:37.715Z,4.18
2022-08-08T07:36:19.827Z,4.50
2022-08-08T07:38:52.917Z,4.88
2022-08-08T07:41:25.181Z,4.38
2022-08-08T07:43:58.890Z,4.32
2022-08-08T07:46:30.642Z,4.22
2022-08-08T07:49:07.832Z,4.50
2022-08-08T07:51:45.101Z,4.47
2022-08-08T07:54:42.822Z,3.65
2022-08-08T07:57:27.531Z,4.45
2022-08-08T08:00:15.778Z,4.15
2022-08-08T08:03:01.651Z,3.25
2022-08-08T08:05:33.099Z,3.33
2022-08-08T08:08:15.391Z,3.38
2022-08-08T08:10:51.057Z,3.80
2022-08-08T08:13:25.177Z,3.65
2022-08-08T08:16:01.754Z,2.95
2022-08-08T08:18:51.811Z,3.50
2022-08-08T08:21:44.151Z,3.50
2022-08-08T08:24:32.414Z,3.03
2022-08-08T08:27:02.847Z,3.78
2022-08-08T08:29:31.542Z,4.38
2022-08-08T08:31:59.315Z,3.80
2022-08-08T08:34:33.693Z,3.03
2022-08-08T08:37:03.512Z,2.75
2022-08-08T08:40:00.471Z,2.35
2022-08-08T08:42:32.163Z,3.00
2022-08-08T08:45:20.857Z,2.42
2022-08-08T08:47:54.249Z,2.28
2022-08-08T08:50:32.390Z,2.38
2022-08-08T08:53:28.202Z,2.40
2022-08-08T08:56:01.332Z,2.53
2022-08-08T08:58:39.872Z,2.28
2022-08-08T09:01:16.582Z,2.53
2022-08-08T09:03:51.425Z,2.67
2022-08-08T09:06:34.279Z,2.45
2022-08-08T09:09:19.158Z,2.60
2022-08-08T09:12:08.604Z,2.08
2022-08-08T09:14:45.034Z,2.38
2022-08-08T09:17:18.685Z,2.28
2022-08-08T09:22:00.861Z,2.10
2022-08-08T09:22:35.906Z,2.80
2022-08-08T09:25:05.433Z,2.33
2022-08-08T09:27:41.906Z,2.60
2022-08-08T09:30:27.982Z,2.20
2022-08-08T09:33:54.505Z,2.50
2022-08-08T09:35:49.347Z,2.60
2022-08-08T09:38:52.927Z,2.35
2022-08-08T09:41:54.920Z,2.33
2022-08-08T09:44:35.025Z,2.28
2022-08-08T09:48:02.035Z,1.80
2022-08-08T09:50:01.824Z,1.80
2022-08-08T09:52:55.980Z,1.95
2022-08-08T09:55:51.652Z,2.00
2022-08-08T09:58:20.357Z,1.92
2022-08-08T10:00:57.411Z,2.10
2022-08-08T10:03:31.561Z,2.47
2022-08-08T10:05:59.113Z,1.70
2022-08-08T10:08:30.525Z,1.60
2022-08-08T10:11:01.111Z,2.17
2022-08-08T10:13:35.615Z,1.88
2022-08-08T10:16:03.833Z,2.30
2022-08-08T10:18:33.526Z,1.80
2022-08-08T10:21:24.921Z,1.92
2022-08-08T10:23:57.964Z,2.00
2022-08-08T10:26:57.310Z,2.13
2022-08-08T10:29:57.106Z,1.90
2022-08-08T10:32:37.439Z,1.98
2022-08-08T10:36:07.601Z,1.80
2022-08-08T10:38:05.824Z,2.15
2022-08-08T10:40:38.126Z,1.60
2022-08-08T10:43:06.886Z,1.92
2022-08-08T10:45:56.222Z,1.85
2022-08-08T10:48:56.166Z,2.17
2022-08-08T10:51:31.094Z,2.25
2022-08-08T10:54:08.234Z,2.17
2022-08-08T10:56:43.295Z,1.90
2022-08-08T10:59:14.260Z,2.13
2022-08-08T11:01:49.433Z,2.17
2022-08-08T11:04:29.866Z,2.15
2022-08-08T11:07:06.835Z,2.50
2022-08-08T11:09:34.368Z,2.17
2022-08-08T11:12:12.394Z,2.20
2022-08-08T11:14:58.210Z,2.10
2022-08-08T11:17:58.657Z,1.52
2022-08-08T11:20:27.493Z,1.70
2022-08-08T11:23:00.000Z,1.70
2022-08-08T11:25:52.780Z,1.90
2022-08-08T11:28:26.048Z,1.65
2022-08-08T11:30:59.853Z,1.90
2022-08-08T11:33:51.155Z,1.80
2022-08-08T11:36:15.177Z,1.70
2022-08-08T11:38:54.717Z,1.70
2022-08-08T11:41:33.586Z,1.60
2022-08-08T11:44:02.287Z,1.50
2022-08-08T11:46:32.584Z,2.00
2022-08-08T11:49:07.563Z,1.50
2022-08-08T11:51:39.854Z,1.35
2022-08-08T11:54:31.338Z,1.52
2022-08-08T11:57:36.025Z,1.45
2022-08-08T12:00:07.649Z,1.50
2022-08-08T12:03:15.017Z,1.10
2022-08-08T12:05:43.129Z,1.27
2022-08-08T12:08:11.332Z,1.23
2022-08-08T12:10:47.971Z,1.58
2022-08-08T12:13:22.094Z,1.20
2022-08-08T12:16:18.597Z,1.60
2022-08-08T12:18:54.240Z,1.20
2022-08-08T12:21:59.961Z,1.33
2022-08-08T12:24:16.475Z,1.20
2022-08-08T12:26:54.188Z,1.17
2022-08-08T12:29:41.307Z,1.70
2022-08-08T12:32:19.821Z,1.40
2022-08-08T12:35:13.201Z,1.52
2022-08-08T12:37:48.182Z,1.45
2022-08-08T12:40:54.424Z,1.20
2022-08-08T12:43:47.512Z,1.48
2022-08-08T12:46:25.150Z,1.48
2022-08-08T12:49:25.200Z,1.20
2022-08-08T12:51:59.002Z,1.30
2022-08-08T12:54:35.927Z,1.20
2022-08-08T12:57:24.443Z,1.27
2022-08-08T13:00:05.167Z,1.48
2022-08-08T13:02:42.077Z,1.15
2022-08-08T13:05:26.928Z,1.20
2022-08-08T13:08:19.098Z,1.30
2022-08-08T13:10:58.042Z,1.48
2022-08-08T13:13:37.254Z,1.45
2022-08-08T13:16:37.668Z,1.45
2022-08-08T13:19:12.348Z,1.70
2022-08-08T13:21:53.593Z,1.55
2022-08-08T13:24:40.924Z,1.30
2022-08-08T13:27:17.687Z,1.60
2022-08-08T13:30:07.894Z,1.15
2022-08-08T13:32:39.489Z,1.10
2022-08-08T13:35:24.736Z,1.27
2022-08-08T13:38:06.129Z,1.20
2022-08-08T13:40:35.532Z,1.80
2022-08-08T13:43:03.995Z,1.40
2022-08-08T13:45:31.534Z,1.60
2022-08-08T13:48:00.029Z,1.40
2022-08-08T13:50:36.294Z,1.30
2022-08-08T13:53:25.111Z,1.45
2022-08-08T13:56:02.497Z,1.30
2022-08-08T13:58:30.221Z,1.30
2022-08-08T14:00:58.066Z,1.30
2022-08-08T14:03:52.236Z,1.42
2022-08-08T14:06:32.139Z,1.60
2022-08-08T14:09:25.134Z,1.52
2022-08-08T14:11:51.512Z,1.48
2022-08-08T14:14:20.949Z,1.40
2022-08-08T14:16:53.326Z,1.63
2022-08-08T14:19:57.275Z,1.52
2022-08-08T14:22:22.842Z,1.80
2022-08-08T14:24:58.910Z,1.60
2022-08-08T14:27:37.558Z,1.30
2022-08-08T14:30:18.223Z,1.65
2022-08-08T14:32:53.854Z,1.60
2022-08-08T14:35:25.067Z,1.58
2022-08-08T14:38:09.367Z,1.73
2022-08-08T14:40:42.409Z,1.65
2022-08-08T14:43:31.105Z,1.45
2022-08-08T14:46:05.945Z,1.70
2022-08-08T14:48:42.499Z,1.50
2022-08-08T14:51:26.193Z,1.60
2022-08-08T14:54:13.449Z,1.50
2022-08-08T14:56:43.392Z,1.23
2022-08-08T14:59:31.419Z,1.55
2022-08-08T15:02:05.625Z,1.70
2022-08-08T15:04:35.256Z,1.50
2022-08-08T15:07:02.846Z,1.60
2022-08-08T15:09:31.680Z,1.48
2022-08-08T15:11:59.813Z,1.55
2022-08-08T15:14:26.978Z,1.50
2022-08-08T15:16:57.163Z,1.63
2022-08-08T15:19:28.224Z,1.55
2022-08-08T15:21:57.775Z,1.33
2022-08-08T15:24:31.263Z,1.60
2022-08-08T15:27:00.192Z,1.73
2022-08-08T15:29:39.365Z,1.60
2022-08-08T15:32:19.512Z,1.70
2022-08-08T15:34:47.970Z,1.42
2022-08-08T15:37:15.189Z,2.03
2022-08-08T15:39:44.782Z,1.75
2022-08-08T15:42:31.197Z,1.38
2022-08-08T15:44:59.572Z,1.42
2022-08-08T15:47:27.169Z,1.42
2022-08-08T15:49:54.460Z,1.50
2022-08-08T15:52:23.208Z,1.63
2022-08-08T15:54:52.650Z,1.40
2022-08-08T15:57:20.974Z,1.27
2022-08-08T16:00:18.047Z,1.40
2022-08-08T16:02:44.682Z,1.30
2022-08-08T16:05:23.827Z,1.48
2022-08-08T16:07:53.892Z,1.50
2022-08-08T16:13:09.906Z,1.30
2022-08-08T16:13:45.231Z,1.20
2022-08-08T16:16:13.485Z,1.60
2022-08-08T16:18:57.107Z,1.42
2022-08-08T16:21:31.486Z,1.38
2022-08-08T16:24:01.508Z,1.50
2022-08-08T16:26:32.802Z,1.60
2022-08-08T16:29:01.871Z,1.52
2022-08-08T16:31:30.287Z,1.67
2022-08-08T16:33:59.562Z,1.40
2022-08-08T16:36:33.176Z,1.50
2022-08-08T16:39:09.939Z,1.58
2022-08-08T16:41:51.335Z,1.50
2022-08-08T16:44:27.767Z,1.60
2022-08-08T16:47:21.911Z,2.25
2022-08-08T16:50:13.747Z,1.60
2022-08-08T16:55:06.935Z,2.22
2022-08-08T16:55:53.125Z,4.82
2022-08-08T16:58:20.471Z,1.52
2022-08-08T17:00:48.715Z,1.42
2022-08-08T17:03:25.475Z,1.55
2022-08-08T17:06:37.050Z,1.60
2022-08-08T17:08:54.173Z,1.50
2022-08-08T17:11:20.939Z,1.77
2022-08-08T17:14:01.699Z,1.70
2022-08-08T17:16:29.530Z,1.63
2022-08-08T17:18:58.431Z,1.17
2022-08-08T17:21:41.390Z,1.65
2022-08-08T17:24:20.599Z,1.40
2022-08-08T17:26:54.094Z,1.38
2022-08-08T17:29:25.496Z,1.27
2022-08-08T17:31:52.996Z,1.48
2022-08-08T17:34:37.063Z,1.27
2022-08-08T17:37:11.147Z,1.67
2022-08-08T17:40:04.163Z,1.40
2022-08-08T17:42:26.422Z,1.30
2022-08-08T17:44:53.712Z,1.45
2022-08-08T17:47:27.353Z,1.33
2022-08-08T17:50:01.136Z,1.63
2022-08-08T17:52:35.171Z,1.67
2022-08-08T17:55:05.082Z,1.70
2022-08-08T17:57:35.339Z,1.73
2022-08-08T18:00:11.638Z,2.10
2022-08-08T18:02:52.557Z,1.60
2022-08-08T18:05:48.064Z,1.73
2022-08-08T18:08:24.434Z,1.30
2022-08-08T18:11:04.942Z,1.75
2022-08-08T18:13:34.953Z,1.45
2022-08-08T18:16:08.371Z,1.73
2022-08-08T18:18:39.294Z,1.88
2022-08-08T18:21:34.900Z,1.67
2022-08-08T18:24:01.554Z,1.70
2022-08-08T18:26:29.602Z,1.98
2022-08-08T18:28:57.718Z,1.73
2022-08-08T18:31:25.059Z,2.00
2022-08-08T18:34:25.173Z,1.80
2022-08-08T18:36:44.313Z,1.90
2022-08-08T18:39:16.598Z,2.20
2022-08-08T18:42:03.813Z,1.80
2022-08-08T18:44:34.633Z,2.10
2022-08-08T18:47:03.793Z,1.88
2022-08-08T18:49:40.856Z,2.08
2022-08-08T18:52:22.664Z,1.98
2022-08-08T18:54:58.940Z,1.90
2022-08-08T18:57:28.483Z,1.88
2022-08-08T19:00:01.289Z,1.90
2022-08-08T19:02:29.832Z,1.98
2022-08-08T19:04:57.385Z,1.70
2022-08-08T19:07:29.575Z,2.10
2022-08-08T19:10:13.571Z,2.20
2022-08-08T19:12:44.764Z,2.10
2022-08-08T19:15:23.685Z,2.20
2022-08-08T19:18:30.794Z,2.20
2022-08-08T19:20:42.979Z,2.30
2022-08-08T19:23:14.175Z,2.10
2022-08-08T19:26:19.715Z,2.20
2022-08-08T19:28:31.079Z,2.22
2022-08-08T19:31:03.755Z,2.25
2022-08-08T19:33:52.154Z,2.03
2022-08-08T19:36:27.468Z,2.28
2022-08-08T19:38:56.236Z,2.28
2022-08-08T19:41:29.359Z,2.25
2022-08-08T19:44:02.945Z,2.30
2022-08-08T19:46:33.732Z,2.55
2022-08-08T19:49:03.022Z,2.45
2022-08-08T19:51:34.443Z,2.70
2022-08-08T19:54:06.611Z,2.20
2022-08-08T19:56:39.801Z,2.30
2022-08-08T19:59:13.038Z,2.50
2022-08-08T20:02:01.261Z,2.38
2022-08-08T20:04:28.111Z,2.47
2022-08-08T20:06:57.654Z,2.38
2022-08-08T20:09:25.520Z,2.50
2022-08-08T20:11:59.440Z,2.45
2022-08-08T20:14:35.741Z,2.33
2022-08-08T20:17:08.659Z,2.20
2022-08-08T20:19:42.209Z,2.83
2022-08-08T20:22:20.696Z,2.45
2022-08-08T20:24:53.219Z,2.50
2022-08-08T20:27:21.333Z,2.67
2022-08-08T20:30:00.062Z,2.50
2022-08-08T20:32:37.677Z,2.40
2022-08-08T20:35:05.596Z,2.30
2022-08-08T20:37:46.633Z,2.67
2022-08-08T20:40:35.092Z,2.50
2022-08-08T20:43:13.195Z,2.80
2022-08-08T20:45:57.700Z,2.65
2022-08-08T20:48:26.204Z,2.53
2022-08-08T20:50:55.540Z,3.17
2022-08-08T20:53:57.803Z,3.03
2022-08-08T20:56:10.036Z,2.60
2022-08-08T20:58:38.782Z,3.08
2022-08-08T21:01:20.031Z,2.90
2022-08-08T21:03:59.645Z,2.83
2022-08-08T21:06:51.888Z,2.80
2022-08-08T21:09:16.018Z,2.97
2022-08-08T21:11:51.231Z,3.13
2022-08-08T21:14:30.369Z,2.78
2022-08-08T21:17:01.304Z,2.97
2022-08-08T21:19:33.997Z,3.25
2022-08-08T21:22:11.815Z,2.72
2022-08-08T21:24:42.101Z,2.92
2022-08-08T21:28:06.398Z,3.17
2022-08-08T21:30:10.937Z,3.00
2022-08-08T21:32:45.972Z,2.95
2022-08-08T21:36:18.731Z,2.80
2022-08-08T21:38:11.971Z,2.88
2022-08-08T21:40:56.112Z,3.03
2022-08-08T21:43:34.303Z,3.42
2022-08-08T21:48:05.190Z,3.10
2022-08-08T21:48:58.208Z,3.10
2022-08-08T21:52:09.730Z,3.63
2022-08-08T21:54:51.906Z,2.97
2022-08-08T21:57:09.644Z,3.50
2022-08-08T22:00:01.663Z,3.35
2022-08-08T22:02:24.047Z,3.35
2022-08-08T22:04:55.649Z,4.45
2022-08-08T22:07:39.888Z,3.88
2022-08-08T22:10:09.821Z,3.90
2022-08-08T22:12:44.863Z,3.95
2022-08-08T22:15:13.799Z,3.90
2022-08-08T22:17:45.552Z,3.70
2022-08-08T22:20:23.523Z,3.95
2022-08-08T22:22:52.440Z,3.67
2022-08-08T22:25:25.011Z,3.83
2022-08-08T22:28:03.122Z,3.67
2022-08-08T22:30:33.482Z,3.50
2022-08-08T22:33:01.618Z,4.00
2022-08-08T22:36:05.206Z,3.95
2022-08-08T22:38:17.537Z,4.20
2022-08-08T22:40:48.322Z,4.20
2022-08-08T22:43:17.959Z,4.43
2022-08-08T22:45:46.737Z,4.53
2022-08-08T22:48:19.345Z,5.13
2022-08-08T22:50:48.697Z,4.43
2022-08-08T22:54:30.321Z,4.63
2022-08-08T22:56:03.688Z,4.03
2022-08-08T22:58:33.770Z,4.95
2022-08-08T23:01:26.449Z,4.63
2022-08-08T23:03:55.829Z,4.97
2022-08-08T23:06:24.948Z,4.45
2022-08-08T23:08:58.331Z,5.13
2022-08-08T23:11:57.962Z,4.18
2022-08-08T23:14:17.555Z,4.68
2022-08-08T23:16:48.108Z,4.70
2022-08-08T23:19:21.392Z,4.72
2022-08-08T23:21:48.858Z,4.30
2022-08-08T23:24:22.388Z,4.68
2022-08-08T23:26:53.479Z,4.60
2022-08-08T23:29:24.080Z,4.95
2022-08-08T23:31:50.863Z,5.17
2022-08-08T23:34:19.567Z,5.05
2022-08-08T23:36:47.953Z,5.00
2022-08-08T23:39:15.640Z,4.78
2022-08-08T23:41:47.107Z,5.90
2022-08-08T23:44:18.538Z,5.17
2022-08-08T23:49:02.529Z,5.47
2022-08-08T23:49:34.066Z,5.20
2022-08-08T23:52:04.363Z,4.70
2022-08-08T23:54:42.970Z,5.28
2022-08-08T23:57:26.345Z,5.10
2022-08-08T23:59:59.077Z,5.10
